createdAt,value
2019-01-03T00:01:16.045Z,102647.70
2019-01-03T00:04:03.773Z,102653.55
2019-01-03T00:06:51.456Z,102654.81
2019-01-03T00:12:14.567Z,102646.97
2019-01-03T00:15:02.247Z,102649.59
2019-01-03T00:17:49.974Z,102641.86
2019-01-03T00:23:26.765Z,102652.23
2019-01-03T00:26:14.452Z,102652.81
2019-01-03T00:29:02.181Z,102651.45
2019-01-03T00:31:49.860Z,102657.19
2019-01-03T00:34:37.598Z,102661.91
2019-01-03T00:40:14.367Z,102654.74
2019-01-03T00:43:02.098Z,102662.25
2019-01-03T00:45:49.795Z,102664.92
2019-01-03T00:48:37.533Z,102665.27
2019-01-03T00:54:14.333Z,102679.36
2019-01-03T00:59:51.134Z,102689.03
2019-01-03T01:02:38.819Z,102690.27
2019-01-03T01:05:47.373Z,102687.64
2019-01-03T01:08:35.110Z,102693.28
2019-01-03T01:11:22.814Z,102695.54
2019-01-03T01:14:10.512Z,102687.25
2019-01-03T01:16:58.216Z,102696.08
2019-01-03T01:22:21.427Z,102695.73
2019-01-03T01:27:44.591Z,102690.94
2019-01-03T01:33:07.620Z,102689.62
2019-01-03T01:38:30.802Z,102687.03
2019-01-03T01:41:18.581Z,102684.36
2019-01-03T01:44:06.301Z,102683.09
2019-01-03T01:46:54.011Z,102683.55
2019-01-03T01:52:30.825Z,102684.88
2019-01-03T01:55:18.508Z,102688.47
2019-01-03T02:00:55.278Z,102692.00
2019-01-03T02:03:42.964Z,102695.64
2019-01-03T02:06:30.705Z,102686.85
2019-01-03T02:09:18.401Z,102689.91
2019-01-03T02:14:41.219Z,102694.91
2019-01-03T02:17:28.940Z,102687.86
2019-01-03T02:20:16.685Z,102695.77
2019-01-03T02:23:04.388Z,102692.28
2019-01-03T02:25:52.121Z,102694.80
2019-01-03T02:31:28.939Z,102690.53
2019-01-03T02:34:16.659Z,102688.75
2019-01-03T02:37:04.397Z,102694.91
2019-01-03T02:39:52.080Z,102686.12
2019-01-03T02:42:39.809Z,102686.23
2019-01-03T02:45:27.504Z,102679.27
2019-01-03T02:48:15.237Z,102680.05
2019-01-03T02:51:02.922Z,102677.80
2019-01-03T02:56:26.246Z,102678.27
2019-01-03T02:59:13.960Z,102686.12
2019-01-03T03:02:01.679Z,102682.68
2019-01-03T03:04:49.386Z,102684.84
2019-01-03T03:07:37.125Z,102679.11
2019-01-03T03:10:45.648Z,102673.89
2019-01-03T03:13:33.364Z,102667.38
2019-01-03T03:16:21.077Z,102671.02
2019-01-03T03:21:54.372Z,102666.38
2019-01-03T03:27:17.258Z,102664.72
2019-01-03T03:30:04.987Z,102668.40
2019-01-03T03:32:52.733Z,102664.37
2019-01-03T03:41:04.996Z,102656.47
2019-01-03T03:43:52.706Z,102651.75
2019-01-03T03:46:40.434Z,102655.38
2019-01-03T03:49:28.141Z,102650.54
2019-01-03T03:52:15.854Z,102655.42
2019-01-03T03:57:39.013Z,102639.27
2019-01-03T04:00:47.544Z,102641.94
2019-01-03T04:03:35.223Z,102636.25
2019-01-03T04:06:22.969Z,102636.25
2019-01-03T04:09:10.681Z,102635.43
2019-01-03T04:11:58.400Z,102631.05
2019-01-03T04:14:46.114Z,102623.08
2019-01-03T04:17:33.821Z,102627.52
2019-01-03T04:23:06.849Z,102624.97
2019-01-03T04:25:54.569Z,102616.60
2019-01-03T04:28:42.286Z,102612.77
2019-01-03T04:31:30.053Z,102616.25
2019-01-03T04:34:17.759Z,102606.53
2019-01-03T04:37:05.468Z,102606.17
2019-01-03T04:39:53.171Z,102598.38
2019-01-03T04:42:40.887Z,102602.73
2019-01-03T04:45:28.626Z,102596.25
2019-01-03T04:48:16.313Z,102600.77
2019-01-03T04:51:04.053Z,102596.04
2019-01-03T04:53:51.737Z,102603.05
2019-01-03T04:56:39.467Z,102596.97
2019-01-03T05:02:16.321Z,102595.91
2019-01-03T05:05:03.983Z,102599.81
2019-01-03T05:07:51.716Z,102609.97
2019-01-03T05:10:39.403Z,102595.12
2019-01-03T05:13:27.124Z,102599.64
2019-01-03T05:21:39.526Z,102617.45
2019-01-03T05:24:27.230Z,102606.02
2019-01-03T05:27:14.940Z,102606.95
2019-01-03T05:30:02.660Z,102605.59
2019-01-03T05:32:50.373Z,102607.41
2019-01-03T05:35:38.084Z,102610.90
2019-01-03T05:38:25.787Z,102610.90
2019-01-03T05:49:33.521Z,102609.26
2019-01-03T05:52:21.229Z,102610.15
2019-01-03T05:57:54.964Z,102609.69
2019-01-03T06:00:42.664Z,102608.33
2019-01-03T06:03:30.363Z,102600.78
2019-01-03T06:06:18.069Z,102601.20
2019-01-03T06:09:05.789Z,102600.67
2019-01-03T06:11:53.530Z,102605.20
2019-01-03T06:14:41.201Z,102612.22
2019-01-03T06:20:04.457Z,102612.28
2019-01-03T06:22:52.162Z,102611.47
2019-01-03T06:25:39.872Z,102618.20
2019-01-03T06:28:27.582Z,102618.20
2019-01-03T06:31:15.298Z,102614.74
2019-01-03T06:45:04.152Z,102621.41
2019-01-03T06:47:51.838Z,102617.95
2019-01-03T06:50:39.565Z,102624.11
2019-01-03T06:53:27.246Z,102615.77
2019-01-03T06:56:14.972Z,102628.53
2019-01-03T06:59:02.657Z,102623.22
2019-01-03T07:04:35.696Z,102622.30
2019-01-03T07:07:23.399Z,102624.14
2019-01-03T07:10:11.146Z,102637.33
2019-01-03T07:12:58.823Z,102633.37
2019-01-03T07:15:46.560Z,102634.66
2019-01-03T07:18:34.235Z,102636.47
2019-01-03T07:21:27.301Z,102647.52
2019-01-03T07:24:11.389Z,102638.79
2019-01-03T07:26:59.119Z,102652.44
2019-01-03T07:29:46.796Z,102657.78
2019-01-03T07:32:34.543Z,102660.02
2019-01-03T07:35:22.218Z,102657.06
2019-01-03T07:38:09.946Z,102660.66
2019-01-03T07:40:57.672Z,102657.17
2019-01-03T07:46:34.440Z,102683.11
2019-01-03T07:49:22.148Z,102681.05
2019-01-03T07:52:09.848Z,102683.33
2019-01-03T07:54:57.551Z,102693.55
2019-01-03T07:57:45.253Z,102686.57
2019-01-03T08:00:33.024Z,102699.44
2019-01-03T08:08:41.831Z,102697.04
2019-01-03T08:11:29.530Z,102693.97
2019-01-03T08:14:17.244Z,102701.03
2019-01-03T08:17:04.982Z,102706.31
2019-01-03T08:19:52.666Z,102710.05
2019-01-03T08:22:40.400Z,102713.11
2019-01-03T08:28:17.188Z,102703.16
2019-01-03T08:31:04.871Z,102703.02
2019-01-03T08:33:52.591Z,102712.69
2019-01-03T08:36:40.284Z,102711.50
2019-01-03T08:39:28.074Z,102714.14
2019-01-03T08:45:04.867Z,102718.77
2019-01-03T08:47:52.570Z,102713.77
2019-01-03T08:53:29.349Z,102717.16
2019-01-03T08:59:06.143Z,102715.12
2019-01-03T09:04:42.922Z,102709.70
2019-01-03T09:07:30.613Z,102718.19
2019-01-03T09:10:18.310Z,102723.00
2019-01-03T09:13:06.014Z,102720.27
2019-01-03T09:15:53.720Z,102728.35
2019-01-03T09:18:41.423Z,102724.53
2019-01-03T09:21:29.120Z,102724.50
2019-01-03T09:24:16.843Z,102724.62
2019-01-03T09:27:04.521Z,102721.14
2019-01-03T09:29:52.244Z,102715.58
2019-01-03T09:32:39.930Z,102718.19
2019-01-03T09:35:27.661Z,102717.41
2019-01-03T09:38:15.347Z,102722.55
2019-01-03T09:41:03.080Z,102722.48
2019-01-03T09:46:20.739Z,102726.31
2019-01-03T09:48:49.298Z,102721.08
2019-01-03T09:51:17.879Z,102730.04
2019-01-03T09:53:46.434Z,102725.23
2019-01-03T09:56:15.016Z,102730.20
2019-01-03T09:58:43.581Z,102730.20
2019-01-03T10:01:12.164Z,102736.49
2019-01-03T10:03:40.728Z,102733.91
2019-01-03T10:06:09.388Z,102736.36
2019-01-03T10:08:37.974Z,102724.59
2019-01-03T10:11:06.546Z,102738.80
2019-01-03T10:13:35.101Z,102749.84
2019-01-03T10:16:03.687Z,102752.34
2019-01-03T10:18:32.239Z,102739.49
2019-01-03T10:21:00.822Z,102736.67
2019-01-03T10:23:29.387Z,102748.58
2019-01-03T10:25:57.971Z,102744.98
2019-01-03T10:28:26.588Z,102736.50
2019-01-03T10:30:55.150Z,102739.31
2019-01-03T10:33:23.739Z,102736.48
2019-01-03T10:35:52.296Z,102742.45
2019-01-03T10:38:21.170Z,102735.35
2019-01-03T10:40:51.162Z,102738.74
2019-01-03T10:43:19.749Z,102747.28
2019-01-03T10:45:48.316Z,102752.74
2019-01-03T10:48:16.899Z,102755.48
2019-01-03T10:50:45.469Z,102765.17
2019-01-03T10:53:14.057Z,102764.44
2019-01-03T10:55:42.623Z,102763.43
2019-01-03T10:58:11.206Z,102751.55
2019-01-03T11:01:00.554Z,102748.75
2019-01-03T11:03:29.200Z,102732.22
2019-01-03T11:05:57.759Z,102738.45
2019-01-03T11:08:26.338Z,102739.73
2019-01-03T11:10:54.900Z,102731.98
2019-01-03T11:13:23.487Z,102722.65
2019-01-03T11:15:52.041Z,102715.26
2019-01-03T11:18:20.618Z,102715.86
2019-01-03T11:20:49.178Z,102715.86
2019-01-03T11:23:17.763Z,102708.61
2019-01-03T11:25:46.327Z,102715.30
2019-01-03T11:28:14.915Z,102720.14
2019-01-03T11:30:43.469Z,102717.11
2019-01-03T11:33:12.048Z,102720.40
2019-01-03T11:35:40.600Z,102713.89
2019-01-03T11:38:09.163Z,102710.23
2019-01-03T11:40:37.749Z,102710.55
2019-01-03T11:43:06.314Z,102711.52
2019-01-03T11:45:34.918Z,102708.39
2019-01-03T11:48:24.333Z,102719.16
2019-01-03T11:50:52.893Z,102715.19
2019-01-03T11:53:21.457Z,102712.98
2019-01-03T11:55:50.055Z,102713.49
2019-01-03T11:58:18.605Z,102709.55
2019-01-03T12:00:47.190Z,102717.05
2019-01-03T12:03:15.749Z,102719.16
2019-01-03T12:05:44.329Z,102717.98
2019-01-03T12:08:12.903Z,102719.66
2019-01-03T12:10:41.486Z,102718.91
2019-01-03T12:13:10.075Z,102713.22
2019-01-03T12:15:38.716Z,102713.16
2019-01-03T12:18:27.902Z,102722.05
2019-01-03T12:20:56.474Z,102719.86
2019-01-03T12:23:25.031Z,102715.79
2019-01-03T12:25:53.618Z,102712.00
2019-01-03T12:28:22.167Z,102714.45
2019-01-03T12:30:50.742Z,102711.77
2019-01-03T12:33:19.300Z,102708.95
2019-01-03T12:35:47.885Z,102701.88
2019-01-03T12:38:16.446Z,102704.80
2019-01-03T12:40:45.030Z,102700.67
2019-01-03T12:43:13.593Z,102703.86
2019-01-03T12:45:42.186Z,102692.69
2019-01-03T12:48:10.739Z,102689.41
2019-01-03T12:50:39.319Z,102695.17
2019-01-03T12:53:07.878Z,102696.17
2019-01-03T12:55:36.461Z,102701.09
2019-01-03T12:58:05.033Z,102699.84
2019-01-03T13:00:33.618Z,102697.06
2019-01-03T13:03:02.184Z,102700.98
2019-01-03T13:05:30.782Z,102706.38
2019-01-03T13:07:59.339Z,102707.75
2019-01-03T13:10:27.930Z,102706.95
2019-01-03T13:12:58.213Z,102708.85
2019-01-03T13:15:26.800Z,102712.23
2019-01-03T13:17:55.374Z,102721.95
2019-01-03T13:20:23.927Z,102728.22
2019-01-03T13:22:52.520Z,102726.97
2019-01-03T13:25:21.097Z,102735.70
2019-01-03T13:27:49.686Z,102734.46
2019-01-03T13:30:18.244Z,102739.66
2019-01-03T13:32:46.834Z,102736.88
2019-01-03T13:35:15.419Z,102742.56
2019-01-03T13:38:03.337Z,102735.70
2019-01-03T13:40:31.895Z,102731.73
2019-01-03T13:43:00.472Z,102740.11
2019-01-03T13:45:29.031Z,102744.72
2019-01-03T13:47:57.610Z,102741.52
2019-01-03T13:50:26.190Z,102745.13
2019-01-03T13:52:54.776Z,102741.70
2019-01-03T13:55:23.361Z,102741.92
2019-01-03T13:57:51.928Z,102747.62
2019-01-03T14:00:28.052Z,102751.84
2019-01-03T14:02:56.639Z,102751.03
2019-01-03T14:05:25.201Z,102754.13
2019-01-03T14:07:53.782Z,102751.33
2019-01-03T14:10:22.420Z,102753.48
2019-01-03T14:12:51.019Z,102756.83
2019-01-03T14:15:19.589Z,102766.19
2019-01-03T14:17:48.188Z,102764.97
2019-01-03T14:20:16.743Z,102761.75
2019-01-03T14:22:45.329Z,102755.37
2019-01-03T14:25:34.714Z,102757.75
2019-01-03T14:28:03.300Z,102752.97
2019-01-03T14:30:31.880Z,102761.45
2019-01-03T14:33:00.463Z,102760.70
2019-01-03T14:35:29.033Z,102764.09
2019-01-03T14:37:57.588Z,102766.23
2019-01-03T14:40:26.163Z,102777.02
2019-01-03T14:42:54.715Z,102775.27
2019-01-03T14:45:23.306Z,102777.64
2019-01-03T14:47:51.867Z,102786.09
2019-01-03T14:50:20.472Z,102775.95
2019-01-03T14:52:49.033Z,102775.86
2019-01-03T14:55:17.632Z,102779.16
2019-01-03T14:57:46.210Z,102779.94
2019-01-03T15:02:49.994Z,102784.16
2019-01-03T15:05:18.579Z,102788.46
2019-01-03T15:07:47.145Z,102791.97
2019-01-03T15:10:15.726Z,102788.12
2019-01-03T15:12:44.292Z,102788.98
2019-01-03T15:15:12.862Z,102791.63
2019-01-03T15:17:41.417Z,102786.65
2019-01-03T15:20:30.789Z,102788.73
2019-01-03T15:22:59.357Z,102792.08
2019-01-03T15:25:27.939Z,102798.99
2019-01-03T15:27:56.506Z,102797.55
2019-01-03T15:30:25.088Z,102797.38
2019-01-03T15:32:53.644Z,102792.92
2019-01-03T15:35:22.224Z,102800.78
2019-01-03T15:37:50.794Z,102799.56
2019-01-03T15:40:19.384Z,102806.83
2019-01-03T15:42:47.946Z,102808.14
2019-01-03T15:45:16.524Z,102817.19
2019-01-03T15:47:45.094Z,102818.05
2019-01-03T15:50:13.674Z,102818.05
2019-01-03T15:52:42.243Z,102826.44
2019-01-03T15:55:10.825Z,102825.61
2019-01-03T15:57:39.373Z,102833.03
2019-01-03T16:00:28.748Z,102834.85
2019-01-03T16:02:57.314Z,102843.95
2019-01-03T16:05:25.967Z,102846.99
2019-01-03T16:07:54.531Z,102846.99
2019-01-03T16:10:23.113Z,102855.77
2019-01-03T16:12:51.672Z,102856.66
2019-01-03T16:15:20.252Z,102857.16
2019-01-03T16:17:48.816Z,102860.70
2019-01-03T16:20:17.403Z,102858.52
2019-01-03T16:22:45.970Z,102865.59
2019-01-03T16:25:14.555Z,102866.05
2019-01-03T16:27:43.124Z,102872.16
2019-01-03T16:30:11.769Z,102867.87
2019-01-03T16:32:40.337Z,102869.19
2019-01-03T16:35:08.925Z,102871.01
2019-01-03T16:37:37.490Z,102870.94
2019-01-03T16:40:26.872Z,102866.34
2019-01-03T16:42:55.422Z,102868.98
2019-01-03T16:45:24.004Z,102868.62
2019-01-03T16:47:52.556Z,102876.15
2019-01-03T16:50:21.164Z,102876.61
2019-01-03T16:52:49.727Z,102872.91
2019-01-03T16:55:37.457Z,102874.80
2019-01-03T16:58:06.012Z,102866.44
2019-01-03T17:00:34.586Z,102865.45
2019-01-03T17:03:03.170Z,102867.30
2019-01-03T17:05:31.727Z,102865.02
2019-01-03T17:08:00.312Z,102866.05
2019-01-03T17:10:28.870Z,102859.41
2019-01-03T17:12:57.459Z,102857.34
2019-01-03T17:15:26.014Z,102855.48
2019-01-03T17:17:54.596Z,102847.56
2019-01-03T17:20:23.160Z,102852.48
2019-01-03T17:22:51.747Z,102849.84
2019-01-03T17:25:20.318Z,102847.20
2019-01-03T17:27:48.902Z,102843.14
2019-01-03T17:30:17.471Z,102845.09
2019-01-03T17:32:46.055Z,102845.02
2019-01-03T17:35:14.606Z,102843.70
2019-01-03T17:37:43.181Z,102845.88
2019-01-03T17:40:32.529Z,102850.45
2019-01-03T17:43:01.112Z,102849.12
2019-01-03T17:45:29.675Z,102856.72
2019-01-03T17:47:58.256Z,102852.20
2019-01-03T17:50:26.821Z,102853.98
2019-01-03T17:52:55.406Z,102858.33
2019-01-03T17:55:23.963Z,102849.88
2019-01-03T17:57:52.545Z,102849.38
2019-01-03T18:03:10.190Z,102860.48
2019-01-03T18:05:38.740Z,102863.98
2019-01-03T18:08:07.327Z,102853.78
2019-01-03T18:10:35.893Z,102864.88
2019-01-03T18:13:04.486Z,102867.95
2019-01-03T18:15:33.041Z,102873.91
2019-01-03T18:18:01.626Z,102880.47
2019-01-03T18:20:30.204Z,102881.36
2019-01-03T18:22:58.810Z,102879.04
2019-01-03T18:25:27.363Z,102883.97
2019-01-03T18:27:55.974Z,102879.78
2019-01-03T18:30:24.535Z,102891.20
2019-01-03T18:32:53.094Z,102892.20
2019-01-03T18:35:21.681Z,102900.13
2019-01-03T18:37:50.242Z,102896.95
2019-01-03T18:40:18.827Z,102893.95
2019-01-03T18:42:47.386Z,102888.13
2019-01-03T18:45:36.757Z,102892.63
2019-01-03T18:48:05.322Z,102885.34
2019-01-03T18:50:34.190Z,102890.77
2019-01-03T18:53:04.195Z,102888.38
2019-01-03T18:55:32.809Z,102891.02
2019-01-03T18:58:01.339Z,102891.37
2019-01-03T19:00:29.922Z,102884.81
2019-01-03T19:02:58.485Z,102890.59
2019-01-03T19:05:27.064Z,102896.11
2019-01-03T19:07:55.632Z,102898.03
2019-01-03T19:10:28.306Z,102902.20
2019-01-03T19:12:54.506Z,102906.64
2019-01-03T19:15:23.093Z,102910.05
2019-01-03T19:17:51.655Z,102916.39
2019-01-03T19:20:20.244Z,102927.06
2019-01-03T19:22:48.876Z,102930.55
2019-01-03T19:25:17.532Z,102927.80
2019-01-03T19:27:46.162Z,102928.50
2019-01-03T19:30:14.758Z,102931.48
2019-01-03T19:32:43.314Z,102930.55
2019-01-03T19:35:32.681Z,102938.36
2019-01-03T19:38:01.247Z,102944.41
2019-01-03T19:40:29.818Z,102949.37
2019-01-03T19:42:58.381Z,102951.14
2019-01-03T19:45:26.968Z,102945.11
2019-01-03T19:47:55.541Z,102951.22
2019-01-03T19:50:24.130Z,102958.42
2019-01-03T19:52:52.697Z,102953.88
2019-01-03T19:55:21.283Z,102953.71
2019-01-03T19:57:49.844Z,102953.88
2019-01-03T20:00:18.427Z,102953.02
2019-01-03T20:02:46.993Z,102956.98
2019-01-03T20:05:15.583Z,102959.72
2019-01-03T20:07:44.212Z,102955.39
2019-01-03T20:10:33.594Z,102954.80
2019-01-03T20:13:02.151Z,102954.77
2019-01-03T20:15:30.736Z,102960.39
2019-01-03T20:17:59.300Z,102960.34
2019-01-03T20:20:27.953Z,102955.23
2019-01-03T20:22:56.499Z,102957.87
2019-01-03T20:25:25.153Z,102952.28
2019-01-03T20:27:53.737Z,102959.27
2019-01-03T20:30:22.296Z,102951.35
2019-01-03T20:32:50.886Z,102948.33
2019-01-03T20:35:19.433Z,102951.23
2019-01-03T20:37:48.014Z,102944.98
2019-01-03T20:40:16.579Z,102947.16
2019-01-03T20:42:45.162Z,102948.05
2019-01-03T20:45:13.793Z,102942.94
2019-01-03T20:47:42.387Z,102936.84
2019-01-03T20:50:31.723Z,102936.84
2019-01-03T20:53:00.317Z,102941.96
2019-01-03T20:55:28.949Z,102944.02
2019-01-03T20:57:57.542Z,102951.31
2019-01-03T21:00:26.097Z,102945.80
2019-01-03T21:02:54.772Z,102939.79
2019-01-03T21:05:23.406Z,102938.89
2019-01-03T21:07:51.998Z,102934.20
2019-01-03T21:10:20.562Z,102936.77
2019-01-03T21:12:49.159Z,102937.84
2019-01-03T21:15:17.801Z,102935.25
2019-01-03T21:17:46.379Z,102940.53
2019-01-03T21:20:35.720Z,102937.89
2019-01-03T21:23:04.313Z,102935.76
2019-01-03T21:25:32.867Z,102940.69
2019-01-03T21:28:01.458Z,102940.26
2019-01-03T21:30:30.019Z,102941.03
2019-01-03T21:32:58.618Z,102938.82
2019-01-03T21:35:27.195Z,102935.29
2019-01-03T21:37:55.849Z,102938.55
2019-01-03T21:40:24.417Z,102940.53
2019-01-03T21:42:52.973Z,102942.63
2019-01-03T21:45:21.623Z,102938.47
2019-01-03T21:47:50.185Z,102926.44
2019-01-03T21:50:18.766Z,102927.91
2019-01-03T21:52:47.321Z,102927.41
2019-01-03T21:55:15.911Z,102922.56
2019-01-03T21:57:44.469Z,102921.81
2019-01-03T22:00:13.196Z,102920.80
2019-01-03T22:02:41.759Z,102936.05
2019-01-03T22:05:10.449Z,102932.66
2019-01-03T22:07:38.983Z,102917.28
2019-01-03T22:10:28.360Z,102922.52
2019-01-03T22:12:56.931Z,102927.48
2019-01-03T22:15:25.528Z,102923.24
2019-01-03T22:17:54.116Z,102917.47
2019-01-03T22:20:22.698Z,102913.77
2019-01-03T22:22:51.276Z,102914.15
2019-01-03T22:25:19.861Z,102909.10
2019-01-03T22:27:48.430Z,102907.15
2019-01-03T22:30:17.025Z,102904.39
2019-01-03T22:32:45.613Z,102902.55
2019-01-03T22:35:14.196Z,102897.77
2019-01-03T22:37:42.756Z,102900.91
2019-01-03T22:40:11.354Z,102898.27
2019-01-03T22:42:39.951Z,102900.77
2019-01-03T22:45:29.336Z,102894.83
2019-01-03T22:47:57.901Z,102891.18
2019-01-03T22:50:26.499Z,102903.53
2019-01-03T22:52:55.062Z,102901.25
2019-01-03T22:55:23.653Z,102902.94
2019-01-03T22:57:52.236Z,102901.25
2019-01-03T23:00:41.099Z,102893.00
2019-01-03T23:03:09.668Z,102898.86
2019-01-03T23:05:38.268Z,102899.92
2019-01-03T23:08:06.825Z,102895.59
2019-01-03T23:10:35.415Z,102901.77
2019-01-03T23:13:03.980Z,102905.06
2019-01-03T23:15:32.637Z,102905.66
2019-01-03T23:18:01.262Z,102897.37
2019-01-03T23:20:29.839Z,102904.09
2019-01-03T23:22:58.441Z,102913.05
2019-01-03T23:25:47.853Z,102899.95
2019-01-03T23:28:16.426Z,102902.29
2019-01-03T23:30:44.997Z,102906.24
2019-01-03T23:33:13.580Z,102908.16
2019-01-03T23:35:42.141Z,102909.20
2019-01-03T23:38:10.740Z,102910.18
2019-01-03T23:40:39.306Z,102903.20
2019-01-03T23:43:07.902Z,102906.31
2019-01-03T23:45:36.533Z,102903.38
2019-01-03T23:48:05.123Z,102901.75
2019-01-03T23:50:33.756Z,102896.20
2019-01-03T23:53:02.345Z,102895.27
2019-01-03T23:55:51.697Z,102902.06
